KHPN/HPN METAR and TAF weather

Enter ICAO airport designator
Station Type Date Time Source
KHPN METAR 2023/02/05 22:56 UTC NOAA

KHPN 052256Z 18003KT 10SM CLR 04/M02 A3001 RMK AO2 SLP169 T00391017


Station Type Date Time Source
KHPN Decoded METAR 2023/02/05 22:56 UTC NOAA

WHITE PLAINS WESTCHESTER, NY, United States (KHPN) 41-04N 073-42W 121M
Feb 05, 2023 - 05:56 PM EST / 2023.02.05 2256 UTC
Wind: from the S (180 degrees) at 3 MPH (3 KT):0
Visibility: 10 mile(s):0
Sky conditions: clear
Temperature: 39.0 F (3.9 C)
Dew Point: 28.9 F (-1.7 C)
Relative Humidity: 66%
Pressure (altimeter): 30.01 in. Hg (1016 hPa)
ob: KHPN 052256Z 18003KT 10SM CLR 04/M02 A3001 RMK AO2 SLP169 T00391017
cycle: 23

Station Type Date Time Source
KHPN TAF 2023/02/05 21:48 UTC NOAA

TAF
AMD KHPN 052045Z 0521/0618 19010KT P6SM SCT150 BKN250
FM060000 19006KT P6SM SCT150 OVC250
FM060300 VRB03KT P6SM SCT050 BKN150 OVC200
FM061300 32007KT P6SM BKN050 BKN150 BKN200
FM061600 33012G20KT P6SM SCT050 SCT150 BKN200
AMD NOT SKED

Example: see airport list